KMMI/MMI METAR and TAF weather

Enter ICAO airport designator
Station Type Date Time Source
KMMI METAR 2019/04/18 10:15 UTC NOAA

KMMI 181015Z AUTO 00000KT 10SM SCT041 12/11 A2993 RMK A01


Station Type Date Time Source
KMMI Decoded METAR 2019/04/18 10:15 UTC NOAA

Station name not available
Apr 18, 2019 - 06:15 AM EDT / 2019.04.18 1015 UTC
Wind: Calm:0
Visibility: 10 mile(s):0
Sky conditions: partly cloudy
Temperature: 53 F (12 C)
Dew Point: 51 F (11 C)
Relative Humidity: 93%
Pressure (altimeter): 29.93 in. Hg (1013 hPa)
ob: KMMI 181015Z AUTO 00000KT 10SM SCT041 12/11 A2993 RMK A01
cycle: 10

Station Type Date Time Source
KMMI TAF UTC NOAA

Error!

Example: see airport list